Terminal Aerodrome Forecast
Issued by NWS

Home | Current Version | Previous Version | Text Only | Print | Product List | Glossary On
Versions: 1 2 3 4 5 6 7 8 9 10 11 12 13 14 15 16 17 18 19
394
FTUS42 TJSJ 271138
TAFJBQ
TAF
TJBQ 271138Z 2712/2812 11005KT P6SM SKC
     FM271300 08015KT P6SM FEW030 SCT050
     FM271630 07014KT P6SM VCTS SCT025CB BKN050
     FM272300 09008KT P6SM FEW025 SCT060
     FM280200 10006KT P6SM SKC=

USA.gov is the U.S. government's official web portal to all federal, state and local government web resources and services.